Time;durP1;ratioP1;P1;durP2;ratioP2;P2;SDS_P1;SDS_P2;PMS_P1;PMS_P2;Temp;Humidity;BMP_temperature;BMP_pressure;BME280_temperature;BME280_humidity;BME280_pressure;Samples;Min_cycle;Max_cycle;Signal;HPM_P1;HPM_P2
2022/07/17 00:00:25;;;;;;;3.87;1.40;;;16.00;99.00;;;;;;5049403;28;20210;-66
2022/07/17 00:02:52;;;;;;;3.47;1.70;;;16.00;98.80;;;;;;5049681;28;20212;-67
2022/07/17 00:05:20;;;;;;;4.37;1.40;;;16.00;98.70;;;;;;5049712;28;20216;-66
2022/07/17 00:07:48;;;;;;;5.93;1.60;;;15.90;98.90;;;;;;5048763;28;20239;-66
2022/07/17 00:10:16;;;;;;;4.00;1.47;;;15.90;99.00;;;;;;5049020;28;20674;-67
2022/07/17 00:12:43;;;;;;;2.03;1.33;;;15.90;98.90;;;;;;5049508;28;20674;-66
2022/07/17 00:15:10;;;;;;;1.80;1.17;;;15.80;99.00;;;;;;5049300;28;20208;-67
2022/07/17 00:17:38;;;;;;;3.10;1.40;;;15.80;99.10;;;;;;5049242;28;20282;-70
2022/07/17 00:20:06;;;;;;;4.53;1.53;;;15.90;99.30;;;;;;5029586;28;20685;-66
2022/07/17 00:22:34;;;;;;;5.77;1.37;;;16.00;99.30;;;;;;5029096;28;20335;-66
2022/07/17 00:25:00;;;;;;;1.70;1.10;;;16.10;99.20;;;;;;5047534;28;20200;-66
2022/07/17 00:27:27;;;;;;;1.97;1.33;;;16.20;99.10;;;;;;5048756;28;20710;-66
2022/07/17 00:29:54;;;;;;;6.37;2.07;;;16.20;99.00;;;;;;5040921;28;20203;-67
2022/07/17 00:32:23;;;;;;;3.37;1.47;;;16.30;99.00;;;;;;5036201;28;20232;-67
2022/07/17 00:34:50;;;;;;;3.83;1.30;;;16.20;98.90;;;;;;5029032;28;20295;-67
2022/07/17 00:37:17;;;;;;;2.93;1.40;;;16.20;98.90;;;;;;5039876;28;20231;-66
2022/07/17 00:39:45;;;;;;;4.10;1.53;;;16.20;98.90;;;;;;5048780;28;20212;-66
2022/07/17 00:42:13;;;;;;;2.90;1.40;;;16.20;98.90;;;;;;5038131;28;20213;-67
2022/07/17 00:44:41;;;;;;;3.83;1.50;;;16.20;98.90;;;;;;5028754;28;20287;-66
2022/07/17 00:47:12;;;;;;;2.17;1.20;;;16.20;98.90;;;;;;5030311;28;20605;-66
2022/07/17 00:49:39;;;;;;;2.20;1.33;;;16.20;99.00;;;;;;5048347;28;20525;-66
2022/07/17 00:52:06;;;;;;;2.87;1.73;;;16.20;99.00;;;;;;5047729;28;20223;-66
2022/07/17 00:54:36;;;;;;;4.13;1.43;;;16.10;99.00;;;;;;5033640;28;20213;-66
2022/07/17 00:57:06;;;;;;;3.07;1.60;;;16.10;99.10;;;;;;5028756;28;20705;-66
2022/07/17 00:59:34;;;;;;;1.60;1.03;;;16.10;99.10;;;;;;5028707;28;20232;-66
2022/07/17 01:02:01;;;;;;;5.33;1.30;;;16.00;99.10;;;;;;5036612;28;20813;-66
2022/07/17 01:04:28;;;;;;;2.10;0.93;;;16.00;99.00;;;;;;5048509;28;20204;-66
2022/07/17 01:06:54;;;;;;;4.23;1.20;;;16.00;99.10;;;;;;5048016;28;20212;-66
2022/07/17 01:09:21;;;;;;;4.43;1.40;;;16.00;99.20;;;;;;5044579;28;20224;-66
2022/07/17 01:11:48;;;;;;;2.53;1.30;;;15.90;99.20;;;;;;5028493;28;20193;-67
2022/07/17 01:14:17;;;;;;;3.17;1.37;;;15.90;99.20;;;;;;5028319;28;20205;-66
2022/07/17 01:16:44;;;;;;;2.50;1.40;;;15.80;99.20;;;;;;5028323;28;20208;-67
2022/07/17 01:19:12;;;;;;;4.20;1.30;;;15.70;99.30;;;;;;5027988;28;20686;-66
2022/07/17 01:21:41;;;;;;;2.53;1.30;;;15.70;99.40;;;;;;5035206;28;20197;-67
2022/07/17 01:24:08;;;;;;;4.67;1.67;;;15.70;99.40;;;;;;5044928;28;20239;-67
2022/07/17 01:26:35;;;;;;;1.90;1.13;;;15.70;99.50;;;;;;5048361;28;20206;-67
2022/07/17 01:29:02;;;;;;;4.80;1.40;;;15.70;99.70;;;;;;5047791;28;20242;-67
2022/07/17 01:31:29;;;;;;;6.20;1.30;;;15.60;99.70;;;;;;5030835;28;20873;-67
2022/07/17 01:33:57;;;;;;;2.47;1.10;;;15.60;99.70;;;;;;5028205;28;20216;-67
2022/07/17 01:36:23;;;;;;;1.90;1.20;;;15.50;99.70;;;;;;5027662;28;20677;-67
2022/07/17 01:38:52;;;;;;;3.17;1.20;;;15.50;99.80;;;;;;5027956;28;20216;-67
2022/07/17 01:41:32;;;;;;;2.63;0.93;;;15.50;99.70;;;;;;5028519;28;20204;-67
2022/07/17 01:43:59;;;;;;;3.60;1.30;;;15.30;99.90;;;;;;5047678;28;20227;-67
2022/07/17 01:46:26;;;;;;;2.03;1.20;;;15.30;99.90;;;;;;5047060;28;20689;-68
2022/07/17 01:48:52;;;;;;;1.53;1.17;;;15.20;99.90;;;;;;5031541;28;20241;-68
2022/07/17 01:51:21;;;;;;;1.70;1.10;;;15.20;99.90;;;;;;5027981;28;20208;-68
2022/07/17 01:53:48;;;;;;;4.27;1.27;;;15.20;99.90;;;;;;5036473;28;20236;-68
2022/07/17 01:56:23;;;;;;;3.57;1.73;;;15.20;99.90;;;;;;5047763;28;20204;-68
2022/07/17 01:58:50;;;;;;;4.93;1.33;;;15.20;99.90;;;;;;5047648;28;20211;-68
2022/07/17 02:01:29;;;;;;;8.90;2.03;;;15.10;99.90;;;;;;5047813;28;20216;-68
2022/07/17 02:03:55;;;;;;;5.93;1.80;;;15.10;99.90;;;;;;5047726;28;20192;-68
2022/07/17 02:06:23;;;;;;;3.67;1.37;;;15.10;99.90;;;;;;5038615;28;20197;-68
2022/07/17 02:08:50;;;;;;;3.93;1.30;;;15.10;99.90;;;;;;5027851;28;20263;-68
2022/07/17 02:11:25;;;;;;;4.47;1.53;;;15.10;99.90;;;;;;5029914;28;20216;-66
2022/07/17 02:13:51;;;;;;;4.10;1.20;;;15.00;99.90;;;;;;5047737;28;20218;-66
2022/07/17 02:16:27;;;;;;;2.27;1.30;;;15.00;99.90;;;;;;5047704;28;20682;-66
2022/07/17 02:18:54;;;;;;;2.93;1.40;;;15.00;99.90;;;;;;5042758;28;20907;-66
2022/07/17 02:21:20;;;;;;;2.97;1.30;;;15.00;99.90;;;;;;5035167;28;20220;-66
2022/07/17 02:23:47;;;;;;;3.63;1.20;;;14.90;99.90;;;;;;5036465;28;20581;-66
2022/07/17 02:26:41;;;;;;;3.00;1.30;;;14.90;99.90;;;;;;5047725;28;20219;-66
2022/07/17 02:29:08;;;;;;;3.37;1.43;;;14.80;99.90;;;;;;5046593;28;20208;-68
2022/07/17 02:31:35;;;;;;;3.90;1.40;;;14.70;99.90;;;;;;5047603;28;20244;-66
2022/07/17 02:34:02;;;;;;;5.40;1.67;;;14.60;99.90;;;;;;5047168;28;20204;-66
2022/07/17 02:36:29;;;;;;;1.93;1.20;;;14.60;99.90;;;;;;5047245;28;20204;-66
2022/07/17 02:38:55;;;;;;;2.37;1.30;;;14.60;99.90;;;;;;5047283;28;20212;-66
2022/07/17 02:41:29;;;;;;;4.40;1.10;;;14.60;99.90;;;;;;5042361;28;20197;-66
2022/07/17 02:43:58;;;;;;;2.97;1.40;;;14.50;99.90;;;;;;5033480;28;20305;-66
2022/07/17 02:46:25;;;;;;;1.67;1.07;;;14.50;99.90;;;;;;5047029;28;20866;-66
2022/07/17 02:48:51;;;;;;;2.73;1.27;;;14.50;99.90;;;;;;5046951;28;20709;-66
2022/07/17 02:51:21;;;;;;;3.90;1.57;;;14.50;99.90;;;;;;5047402;28;20234;-66
2022/07/17 02:53:48;;;;;;;3.87;1.27;;;14.50;99.90;;;;;;5044021;28;20212;-67
2022/07/17 02:56:24;;;;;;;1.63;1.10;;;14.40;99.90;;;;;;5047743;28;20596;-67
2022/07/17 02:58:51;;;;;;;5.97;1.50;;;14.40;99.90;;;;;;5050202;28;20215;-66
2022/07/17 03:01:38;;;;;;;3.20;1.30;;;14.40;99.90;;;;;;5051099;28;20212;-66
2022/07/17 03:04:05;;;;;;;4.30;1.60;;;14.30;99.90;;;;;;5050387;28;20211;-66
2022/07/17 03:06:32;;;;;;;2.00;1.43;;;14.20;99.90;;;;;;5041047;28;20258;-66
2022/07/17 03:08:59;;;;;;;4.07;1.53;;;13.90;99.90;;;;;;5030675;28;20224;-66
2022/07/17 03:11:25;;;;;;;2.73;1.40;;;13.90;99.90;;;;;;5030933;28;20209;-66
2022/07/17 03:13:52;;;;;;;4.77;1.50;;;14.00;99.90;;;;;;5038872;28;20204;-66
2022/07/17 03:16:29;;;;;;;6.13;1.73;;;14.00;99.90;;;;;;5042793;28;20215;-66
2022/07/17 03:18:57;;;;;;;3.40;1.30;;;14.10;99.90;;;;;;5041353;28;20222;-66
2022/07/17 03:21:27;;;;;;;3.43;1.30;;;14.10;99.90;;;;;;5050109;28;20204;-66
2022/07/17 03:23:54;;;;;;;2.53;1.20;;;14.10;99.90;;;;;;5040812;28;20209;-66
2022/07/17 03:26:36;;;;;;;4.23;1.20;;;14.20;99.90;;;;;;5030313;28;20201;-66
2022/07/17 03:29:03;;;;;;;3.63;1.20;;;14.10;99.90;;;;;;5032234;28;20222;-66
2022/07/17 03:31:29;;;;;;;6.10;1.70;;;14.00;99.90;;;;;;5048511;28;20240;-66
2022/07/17 03:33:57;;;;;;;3.17;1.53;;;13.80;99.90;;;;;;5068905;28;20246;-66
2022/07/17 03:36:24;;;;;;;3.37;1.63;;;13.80;99.90;;;;;;5069284;28;20199;-65
2022/07/17 03:38:51;;;;;;;4.10;1.37;;;13.80;99.90;;;;;;5069599;28;20578;-65
2022/07/17 03:41:27;;;;;;;1.50;1.37;;;13.60;99.90;;;;;;5069917;28;20208;-66
2022/07/17 03:43:54;;;;;;;4.97;1.50;;;13.60;99.90;;;;;;5068999;28;20223;-66
2022/07/17 03:46:26;;;;;;;2.80;1.43;;;13.50;99.90;;;;;;5069857;28;20207;-66
2022/07/17 03:48:53;;;;;;;5.33;1.33;;;13.50;99.90;;;;;;5069410;28;20721;-65
2022/07/17 03:51:21;;;;;;;5.93;1.83;;;13.50;99.90;;;;;;5069632;28;20286;-65
2022/07/17 03:53:47;;;;;;;1.43;1.30;;;13.50;99.90;;;;;;5062021;28;20215;-65
2022/07/17 03:56:25;;;;;;;4.83;1.37;;;13.40;99.90;;;;;;5050637;28;20396;-65
2022/07/17 03:58:51;;;;;;;3.23;1.57;;;13.10;99.90;;;;;;5049674;28;20196;-65
2022/07/17 04:01:40;;;;;;;3.83;1.30;;;13.10;99.90;;;;;;5049613;28;20223;-65
2022/07/17 04:04:07;;;;;;;2.37;1.77;;;13.00;99.90;;;;;;5064799;28;20196;-66
2022/07/17 04:06:35;;;;;;;2.90;1.30;;;13.00;99.90;;;;;;5063519;28;20211;-66
2022/07/17 04:09:02;;;;;;;5.03;1.57;;;13.20;99.90;;;;;;5049458;28;20235;-66
2022/07/17 04:11:28;;;;;;;3.97;1.60;;;13.30;99.90;;;;;;5069457;28;20200;-66
2022/07/17 04:13:55;;;;;;;3.77;1.40;;;13.40;99.90;;;;;;5056198;28;20216;-66
2022/07/17 04:16:53;;;;;;;4.90;1.43;;;13.50;99.90;;;;;;5049481;28;20204;-65
2022/07/17 04:19:20;;;;;;;5.30;1.40;;;13.60;99.90;;;;;;5049328;28;20704;-66
2022/07/17 04:21:48;;;;;;;7.30;1.60;;;13.60;99.90;;;;;;5049282;28;20204;-66
2022/07/17 04:24:15;;;;;;;3.27;1.27;;;13.70;99.90;;;;;;5061623;28;20214;-67
2022/07/17 04:26:42;;;;;;;4.67;1.70;;;13.70;99.90;;;;;;5069203;28;20208;-67
2022/07/17 04:29:08;;;;;;;3.40;1.60;;;13.70;99.90;;;;;;5068693;28;20227;-67
2022/07/17 04:31:35;;;;;;;4.17;1.73;;;13.80;99.90;;;;;;5055360;28;20216;-67
2022/07/17 04:34:02;;;;;;;3.60;1.30;;;13.80;99.90;;;;;;5049042;28;20214;-67
2022/07/17 04:36:35;;;;;;;6.27;1.97;;;13.60;99.90;;;;;;5050505;28;20624;-67
2022/07/17 04:39:03;;;;;;;2.93;1.50;;;13.60;99.90;;;;;;5068636;28;20211;-68
2022/07/17 04:41:30;;;;;;;3.63;1.33;;;13.50;99.90;;;;;;5068954;28;20571;-67
2022/07/17 04:43:57;;;;;;;4.20;1.20;;;13.50;99.90;;;;;;5053908;28;20239;-67
2022/07/17 04:46:34;;;;;;;3.53;1.77;;;13.30;99.90;;;;;;5048981;28;20215;-67
2022/07/17 04:49:00;;;;;;;3.67;1.50;;;13.20;99.90;;;;;;5048549;28;20224;-67
2022/07/17 04:51:27;;;;;;;4.70;1.40;;;13.10;99.90;;;;;;5061500;28;20212;-66
2022/07/17 04:53:54;;;;;;;4.03;1.97;;;13.10;99.90;;;;;;5068325;28;20572;-66
2022/07/17 04:56:31;;;;;;;3.73;1.50;;;13.20;99.90;;;;;;5068346;28;20234;-67
2022/07/17 04:58:57;;;;;;;2.97;1.50;;;13.10;99.90;;;;;;5068354;28;20203;-67
2022/07/17 05:01:33;;;;;;;4.30;1.50;;;13.10;99.90;;;;;;5066270;28;20206;-67
2022/07/17 05:04:00;;;;;;;3.60;1.73;;;13.00;99.90;;;;;;5068458;28;20200;-67
2022/07/17 05:06:39;;;;;;;3.37;1.40;;;13.10;99.90;;;;;;5066484;28;20207;-67
2022/07/17 05:09:06;;;;;;;4.67;1.40;;;13.20;99.90;;;;;;5059997;28;20232;-67
2022/07/17 05:11:34;;;;;;;3.40;1.90;;;13.20;99.90;;;;;;5047827;28;20572;-67
2022/07/17 05:14:02;;;;;;;3.43;1.37;;;13.30;99.90;;;;;;5047729;28;20303;-67
2022/07/17 05:16:45;;;;;;;4.70;1.50;;;13.30;99.90;;;;;;5048202;28;20211;-67
2022/07/17 05:19:12;;;;;;;5.33;1.80;;;13.30;99.90;;;;;;5047996;28;20200;-67
2022/07/17 05:21:39;;;;;;;6.33;1.83;;;13.20;99.90;;;;;;5047931;28;20758;-67
2022/07/17 05:24:06;;;;;;;2.70;1.77;;;13.20;99.90;;;;;;5058886;28;20712;-66
2022/07/17 05:26:34;;;;;;;3.67;1.50;;;13.30;99.90;;;;;;5067924;28;20203;-66
2022/07/17 05:29:01;;;;;;;4.73;2.87;;;13.40;99.90;;;;;;5067146;28;20414;-66
2022/07/17 05:31:28;;;;;;;5.80;1.90;;;13.50;99.90;;;;;;5068104;28;20207;-67
2022/07/17 05:33:54;;;;;;;4.13;1.90;;;13.70;99.90;;;;;;5067323;28;20245;-67
2022/07/17 05:36:21;;;;;;;5.03;2.03;;;13.80;99.90;;;;;;5067410;28;20207;-67
2022/07/17 05:38:48;;;;;;;8.67;1.97;;;14.00;99.90;;;;;;5066751;28;20645;-68
2022/07/17 05:41:18;;;;;;;7.00;2.13;;;14.20;99.90;;;;;;5067651;28;20208;-66
2022/07/17 05:43:46;;;;;;;3.67;2.20;;;14.30;99.90;;;;;;5067410;28;20234;-67
2022/07/17 05:46:20;;;;;;;4.63;1.80;;;14.50;99.90;;;;;;5067488;28;20210;-67
2022/07/17 05:48:47;;;;;;;3.63;1.93;;;14.60;99.90;;;;;;5067964;28;20726;-67
2022/07/17 05:51:16;;;;;;;6.57;1.83;;;14.70;99.90;;;;;;5047665;28;20674;-67
2022/07/17 05:53:43;;;;;;;3.17;1.60;;;14.80;99.90;;;;;;5055876;28;20559;-67
2022/07/17 05:58:52;;;;;;;3.60;1.70;;;14.90;99.90;;;;;;5060082;28;20229;-67
2022/07/17 06:01:33;;;;;;;3.87;1.30;;;15.00;99.90;;;;;;5067715;28;20211;-67
2022/07/17 06:04:00;;;;;;;4.63;1.70;;;15.10;99.90;;;;;;5053004;28;20206;-67
2022/07/17 06:06:26;;;;;;;3.50;1.83;;;15.10;99.90;;;;;;5062421;28;20222;-67
2022/07/17 06:08:53;;;;;;;4.50;1.40;;;15.20;99.90;;;;;;5053695;28;20693;-67
2022/07/17 06:11:20;;;;;;;6.37;1.70;;;15.40;99.90;;;;;;5047756;28;20211;-66
2022/07/17 06:13:47;;;;;;;6.10;1.40;;;15.50;99.90;;;;;;5047775;28;20215;-67
2022/07/17 06:16:24;;;;;;;3.77;1.73;;;15.50;99.90;;;;;;5047822;28;20200;-67
2022/07/17 06:18:51;;;;;;;4.87;1.90;;;15.50;99.90;;;;;;5047367;28;20212;-67
2022/07/17 06:21:18;;;;;;;5.27;1.60;;;15.40;99.90;;;;;;5047365;28;20212;-67
2022/07/17 06:23:44;;;;;;;5.63;2.10;;;15.40;99.90;;;;;;5055607;28;20211;-66
2022/07/17 06:26:21;;;;;;;1.37;1.27;;;15.30;99.90;;;;;;5067426;28;20583;-66
2022/07/17 06:28:48;;;;;;;5.27;1.80;;;15.40;99.90;;;;;;5067325;28;20218;-68
2022/07/17 06:31:18;;;;;;;5.27;1.97;;;15.50;99.90;;;;;;5068342;28;20266;-67
2022/07/17 06:33:46;;;;;;;4.60;1.37;;;15.50;99.90;;;;;;5070937;28;20246;-66
2022/07/17 06:36:23;;;;;;;6.60;2.77;;;15.50;99.90;;;;;;5064467;28;20577;-67
2022/07/17 06:38:50;;;;;;;3.27;1.90;;;15.60;99.90;;;;;;5051038;28;20204;-67
2022/07/17 06:41:38;;;;;;;5.30;1.60;;;15.60;99.90;;;;;;5051483;28;20222;-67
2022/07/17 06:44:05;;;;;;;5.03;2.07;;;15.70;99.90;;;;;;5064690;28;20571;-67
2022/07/17 06:46:32;;;;;;;2.13;1.60;;;15.70;99.90;;;;;;5070398;28;20564;-67
2022/07/17 06:49:00;;;;;;;3.37;1.40;;;15.70;99.90;;;;;;5070873;28;20214;-67
2022/07/17 06:51:26;;;;;;;5.77;1.63;;;15.80;99.90;;;;;;5070955;28;20215;-67
2022/07/17 06:53:53;;;;;;;4.00;1.53;;;15.90;99.90;;;;;;5061151;28;20220;-67
2022/07/17 06:56:20;;;;;;;5.00;1.63;;;15.90;99.90;;;;;;5050752;28;20204;-67
2022/07/17 06:58:47;;;;;;;3.37;1.33;;;15.90;99.90;;;;;;5059770;28;20294;-66
2022/07/17 07:01:24;;;;;;;7.00;2.07;;;15.80;99.90;;;;;;5069264;28;20215;-67
2022/07/17 07:03:51;;;;;;;3.83;1.77;;;15.80;99.90;;;;;;5050619;28;20211;-66
2022/07/17 07:06:38;;;;;;;4.13;1.30;;;15.80;99.90;;;;;;5050748;28;20207;-67
2022/07/17 07:09:05;;;;;;;2.13;1.23;;;15.80;99.90;;;;;;5050528;28;20207;-66
2022/07/17 07:11:31;;;;;;;4.07;1.50;;;15.80;99.90;;;;;;5050513;28;20208;-66
2022/07/17 07:13:58;;;;;;;12.47;2.07;;;15.90;99.90;;;;;;5050300;28;20215;-67
2022/07/17 07:16:25;;;;;;;5.27;1.80;;;15.90;99.90;;;;;;5057266;28;20203;-66
2022/07/17 07:18:53;;;;;;;6.63;1.73;;;15.80;99.90;;;;;;5070346;28;20229;-66
2022/07/17 07:21:19;;;;;;;3.47;1.70;;;15.70;99.90;;;;;;5069620;28;20215;-66
2022/07/17 07:23:47;;;;;;;4.63;1.57;;;15.60;99.90;;;;;;5069848;28;20694;-66
2022/07/17 07:26:25;;;;;;;9.73;1.80;;;15.70;99.90;;;;;;5064691;28;20200;-66
2022/07/17 07:28:52;;;;;;;3.73;1.80;;;15.80;99.90;;;;;;5069635;28;20682;-66
2022/07/17 07:31:22;;;;;;;5.70;1.60;;;16.00;99.90;;;;;;5070151;28;20234;-67
2022/07/17 07:33:48;;;;;;;3.67;1.77;;;16.10;99.90;;;;;;5069661;28;20235;-66
2022/07/17 07:36:18;;;;;;;3.93;1.90;;;16.20;99.90;;;;;;5064353;28;20693;-66
2022/07/17 07:38:46;;;;;;;4.63;1.60;;;16.30;99.90;;;;;;5069936;28;20208;-66
2022/07/17 07:41:23;;;;;;;5.93;1.60;;;16.30;99.90;;;;;;5069533;28;20211;-66
2022/07/17 07:43:49;;;;;;;3.43;1.50;;;16.20;99.90;;;;;;5066589;28;20223;-66
2022/07/17 07:46:19;;;;;;;6.43;1.90;;;16.10;99.90;;;;;;5068677;28;20215;-66
2022/07/17 07:48:46;;;;;;;4.30;1.60;;;16.10;99.90;;;;;;5049831;28;20204;-67
2022/07/17 07:51:25;;;;;;;5.30;1.67;;;16.00;99.90;;;;;;5049674;28;20232;-66
2022/07/17 07:53:53;;;;;;;4.83;1.50;;;16.00;99.90;;;;;;5059071;28;20212;-67
2022/07/17 07:56:20;;;;;;;5.37;1.37;;;16.10;99.90;;;;;;5068066;28;20211;-67
2022/07/17 07:58:47;;;;;;;1.47;1.03;;;16.30;99.90;;;;;;5049412;28;20205;-69
2022/07/17 08:01:24;;;;;;;2.10;1.27;;;16.40;99.90;;;;;;5049678;28;20215;-66
2022/07/17 08:03:51;;;;;;;3.03;1.40;;;16.40;99.90;;;;;;5067298;28;20805;-69
2022/07/17 08:06:23;;;;;;;2.87;1.40;;;16.60;99.90;;;;;;5069245;28;20401;-67
2022/07/17 08:08:50;;;;;;;4.47;1.70;;;16.50;99.90;;;;;;5069490;28;20203;-68
2022/07/17 08:11:35;;;;;;;4.30;1.57;;;16.50;99.90;;;;;;5069371;28;20234;-66
2022/07/17 08:14:02;;;;;;;4.27;1.40;;;16.60;99.90;;;;;;5068532;28;20200;-67
2022/07/17 08:16:35;;;;;;;3.50;1.77;;;16.40;99.90;;;;;;5069092;28;20297;-67
2022/07/17 08:19:02;;;;;;;4.30;1.60;;;16.50;99.90;;;;;;5069220;28;20537;-67
2022/07/17 08:22:21;;;;;;;3.90;1.90;;;16.60;99.90;;;;;;5068788;28;20234;-68
2022/07/17 08:24:48;;;;;;;3.10;1.33;;;16.80;99.90;;;;;;5065788;28;20203;-67
2022/07/17 08:27:16;;;;;;;3.70;1.90;;;17.00;99.90;;;;;;5069000;28;20211;-67
2022/07/17 08:29:43;;;;;;;4.17;1.83;;;17.10;99.90;;;;;;5068770;28;20215;-69
2022/07/17 08:32:10;;;;;;;4.30;1.47;;;17.10;99.90;;;;;;5057526;28;20259;-69
2022/07/17 08:34:37;;;;;;;5.00;1.50;;;17.20;99.90;;;;;;5062364;28;20196;-68
2022/07/17 08:37:03;;;;;;;7.97;1.73;;;17.10;99.90;;;;;;5068561;28;20203;-69
2022/07/17 08:39:30;;;;;;;6.57;1.53;;;17.10;99.90;;;;;;5068978;28;20207;-69
2022/07/17 08:41:57;;;;;;;6.17;2.07;;;17.20;99.90;;;;;;5060490;28;20204;-69
2022/07/17 08:44:25;;;;;;;2.97;1.53;;;17.20;99.90;;;;;;5048576;28;20232;-69
2022/07/17 08:46:53;;;;;;;4.13;1.87;;;17.10;99.90;;;;;;5048564;28;20196;-69
2022/07/17 08:49:22;;;;;;;3.17;1.70;;;17.10;99.90;;;;;;5048618;28;20658;-68
2022/07/17 08:51:52;;;;;;;5.03;1.73;;;17.00;99.90;;;;;;5054731;28;20722;-68
2022/07/17 08:54:19;;;;;;;3.77;1.70;;;17.00;99.90;;;;;;5066330;28;20230;-67
2022/07/17 08:57:02;;;;;;;3.97;2.03;;;17.20;99.90;;;;;;5068311;28;20200;-66
2022/07/17 08:59:31;;;;;;;3.27;1.40;;;17.20;99.90;;;;;;5068774;28;20278;-66
2022/07/17 09:01:59;;;;;;;3.27;1.43;;;17.20;99.90;;;;;;5059958;28;20583;-66
2022/07/17 09:04:26;;;;;;;3.67;1.80;;;17.30;99.90;;;;;;5047979;28;20211;-66
2022/07/17 09:07:00;;;;;;;7.90;1.93;;;17.40;99.90;;;;;;5059769;28;20208;-66
2022/07/17 09:09:28;;;;;;;11.03;1.77;;;17.50;99.90;;;;;;5066287;28;20287;-66
2022/07/17 09:12:25;;;;;;;5.07;3.47;;;17.60;99.90;;;;;;5056809;28;20227;-66
2022/07/17 09:14:53;;;;;;;4.97;1.43;;;17.60;99.90;;;;;;5046283;28;20192;-66
2022/07/17 09:17:20;;;;;;;5.23;1.70;;;17.50;99.90;;;;;;5048903;28;21005;-66
2022/07/17 09:19:47;;;;;;;6.17;1.33;;;17.40;99.90;;;;;;5050470;28;20212;-65
2022/07/17 09:22:16;;;;;;;3.20;1.90;;;17.40;99.90;;;;;;5045846;28;20215;-65
2022/07/17 09:24:45;;;;;;;3.20;1.47;;;17.50;99.90;;;;;;5061782;28;20218;-66
2022/07/17 09:27:17;;;;;;;4.37;1.53;;;17.50;99.90;;;;;;5065496;28;20578;-65
2022/07/17 09:29:54;;;;;;;4.53;1.60;;;17.50;99.90;;;;;;5065250;28;20873;-67
2022/07/17 09:32:22;;;;;;;3.73;1.70;;;17.50;99.90;;;;;;5059951;28;20767;-65
2022/07/17 09:34:49;;;;;;;2.60;1.50;;;17.60;99.90;;;;;;5065342;28;20202;-65
2022/07/17 09:37:16;;;;;;;6.23;1.63;;;17.60;99.90;;;;;;5056972;28;20214;-65
2022/07/17 09:39:44;;;;;;;4.43;1.30;;;17.60;99.90;;;;;;5045846;28;20219;-65
2022/07/17 09:42:25;;;;;;;6.53;1.87;;;17.60;99.90;;;;;;5058189;28;20207;-65
2022/07/17 09:48:16;;;;;;;3.70;1.70;;;17.70;99.90;;;;;;5064960;28;20677;-65
2022/07/17 09:50:44;;;;;;;5.23;1.50;;;17.70;99.90;;;;;;5058032;28;20243;-65
2022/07/17 09:53:11;;;;;;;7.00;2.37;;;17.70;99.90;;;;;;5050427;28;20238;-65
2022/07/17 09:55:40;;;;;;;8.17;1.70;;;17.90;99.90;;;;;;5065991;28;20199;-65
2022/07/17 09:58:09;;;;;;;3.63;1.60;;;17.90;99.90;;;;;;5065167;28;20204;-65
2022/07/17 10:00:36;;;;;;;2.97;1.70;;;17.90;99.90;;;;;;5065123;28;20215;-65
2022/07/17 10:03:05;;;;;;;2.23;1.20;;;18.10;99.90;;;;;;5051356;28;20212;-65
2022/07/17 10:05:35;;;;;;;5.00;1.90;;;18.10;99.90;;;;;;5044555;28;20733;-65
2022/07/17 10:08:02;;;;;;;5.03;2.07;;;18.20;99.90;;;;;;5045079;28;20669;-65
2022/07/17 10:10:30;;;;;;;6.97;1.97;;;18.40;99.90;;;;;;5045291;28;20275;-65
2022/07/17 10:12:57;;;;;;;6.10;1.87;;;18.60;99.90;;;;;;5046117;28;20208;-65
2022/07/17 10:15:26;;;;;;;8.10;1.60;;;18.60;99.90;;;;;;5047279;28;20265;-65
2022/07/17 10:18:04;;;;;;;13.83;2.43;;;18.60;99.90;;;;;;5050367;28;20215;-65
2022/07/17 10:20:32;;;;;;;9.83;1.93;;;18.60;99.90;;;;;;5065232;28;20199;-65
2022/07/17 10:22:59;;;;;;;5.63;1.83;;;18.60;99.90;;;;;;5060635;28;20208;-66
2022/07/17 10:25:26;;;;;;;3.77;1.80;;;18.60;99.90;;;;;;5065173;28;20535;-65
2022/07/17 10:27:55;;;;;;;6.47;1.57;;;18.70;99.90;;;;;;5065284;28;20207;-65
2022/07/17 10:30:26;;;;;;;4.37;1.60;;;18.80;99.90;;;;;;5064998;28;20204;-65
2022/07/17 10:32:54;;;;;;;4.60;1.57;;;18.80;99.40;;;;;;5052377;28;20328;-65
2022/07/17 10:35:21;;;;;;;7.17;1.80;;;18.80;99.80;;;;;;5064425;28;20743;-65
2022/07/17 10:37:49;;;;;;;3.03;1.73;;;18.90;99.90;;;;;;5064987;28;20218;-65
2022/07/17 10:40:18;;;;;;;5.17;1.67;;;19.10;99.90;;;;;;5065094;28;20202;-65
2022/07/17 10:43:04;;;;;;;6.77;1.87;;;19.20;99.30;;;;;;5054038;28;20235;-65
2022/07/17 10:45:35;;;;;;;4.33;1.87;;;19.20;99.20;;;;;;5065216;28;20253;-65
2022/07/17 10:48:03;;;;;;;4.73;1.63;;;19.20;99.20;;;;;;5065069;28;20215;-65
2022/07/17 10:50:35;;;;;;;4.80;2.40;;;19.30;99.00;;;;;;5064879;28;20217;-65
2022/07/17 10:53:09;;;;;;;3.10;2.03;;;19.30;98.80;;;;;;5053872;28;20216;-65
2022/07/17 10:55:37;;;;;;;5.57;2.00;;;19.40;99.00;;;;;;5065016;28;20191;-65
2022/07/17 10:58:14;;;;;;;3.33;1.60;;;19.60;98.80;;;;;;5057659;28;20220;-65
2022/07/17 11:00:40;;;;;;;3.83;1.60;;;19.60;98.80;;;;;;5044909;28;20204;-65
2022/07/17 11:03:12;;;;;;;4.37;1.90;;;19.60;98.40;;;;;;5045321;28;20212;-65
2022/07/17 11:05:39;;;;;;;4.30;1.80;;;19.40;98.60;;;;;;5044704;28;20797;-65
2022/07/17 11:08:09;;;;;;;4.60;2.03;;;19.20;98.50;;;;;;5044797;28;20208;-65
2022/07/17 11:10:37;;;;;;;6.13;1.70;;;19.00;98.70;;;;;;5054119;28;20687;-65
2022/07/17 11:13:11;;;;;;;3.93;1.87;;;19.10;98.70;;;;;;5064080;28;20208;-65
2022/07/17 11:15:46;;;;;;;4.27;1.50;;;19.30;98.00;;;;;;5047679;28;20204;-65
2022/07/17 11:18:16;;;;;;;4.07;1.67;;;19.50;97.90;;;;;;5047334;28;20249;-65
2022/07/17 11:20:51;;;;;;;4.67;1.80;;;19.60;98.10;;;;;;5048078;28;20204;-65
2022/07/17 11:23:20;;;;;;;4.47;1.47;;;19.80;97.80;;;;;;5053486;28;20203;-65
2022/07/17 11:25:58;;;;;;;3.13;1.40;;;20.00;97.60;;;;;;5067489;28;20207;-65
2022/07/17 11:28:30;;;;;;;5.97;1.77;;;20.30;98.10;;;;;;5067610;28;20654;-65
2022/07/17 11:30:56;;;;;;;5.93;2.23;;;20.60;96.90;;;;;;5067183;28;20227;-65
2022/07/17 11:33:23;;;;;;;2.60;1.73;;;20.80;96.50;;;;;;5049906;28;20251;-65
2022/07/17 11:35:50;;;;;;;3.20;1.63;;;20.90;96.20;;;;;;5047481;28;20302;-65
2022/07/17 11:38:24;;;;;;;5.67;1.63;;;21.00;96.00;;;;;;5047921;28;20842;-65
2022/07/17 11:40:50;;;;;;;2.80;1.40;;;21.10;95.60;;;;;;5056261;28;20535;-65
2022/07/17 11:43:17;;;;;;;3.20;1.50;;;21.30;95.10;;;;;;5058760;28;20238;-65
2022/07/17 11:45:44;;;;;;;6.40;1.40;;;21.10;94.30;;;;;;5047660;28;20212;-65
2022/07/17 11:48:11;;;;;;;3.87;1.60;;;21.00;94.70;;;;;;5048138;28;20210;-65
2022/07/17 11:50:38;;;;;;;4.73;1.40;;;21.10;94.60;;;;;;5047907;28;20208;-65
2022/07/17 11:53:06;;;;;;;4.07;1.47;;;21.20;94.70;;;;;;5050918;28;20215;-65
2022/07/17 11:55:39;;;;;;;3.13;1.43;;;21.40;94.70;;;;;;5067093;28;20207;-65
2022/07/17 11:58:06;;;;;;;4.03;1.73;;;21.60;95.00;;;;;;5066935;28;20207;-65
2022/07/17 12:00:34;;;;;;;4.17;1.70;;;21.80;94.20;;;;;;5067697;28;20211;-65
2022/07/17 12:03:01;;;;;;;6.15;1.83;;;21.90;94.20;;;;;;5064632;28;20215;-65
2022/07/17 12:05:30;;;;;;;4.10;1.63;;;22.10;93.30;;;;;;5047301;28;20569;-65
2022/07/17 12:07:57;;;;;;;3.07;1.30;;;22.10;93.80;;;;;;5065157;28;20576;-65
2022/07/17 12:10:26;;;;;;;4.73;1.47;;;22.20;93.60;;;;;;5066932;28;20208;-65
2022/07/17 12:12:57;;;;;;;5.28;1.70;;;22.30;93.60;;;;;;5066607;28;20250;-65
2022/07/17 12:15:35;;;;;;;4.28;1.80;;;22.30;93.30;;;;;;5048192;28;20241;-65
2022/07/17 12:18:03;;;;;;;6.47;1.50;;;22.40;93.60;;;;;;5046813;28;20215;-66
2022/07/17 12:20:42;;;;;;;3.37;1.20;;;22.60;93.20;;;;;;5046917;28;20207;-66
2022/07/17 12:23:09;;;;;;;5.03;1.88;;;22.90;93.20;;;;;;5058794;28;20211;-66
2022/07/17 12:25:36;;;;;;;2.97;1.55;;;23.20;92.60;;;;;;5046943;28;20266;-66
2022/07/17 12:28:05;;;;;;;2.70;1.40;;;23.40;92.20;;;;;;5052563;28;20247;-66
2022/07/17 12:30:32;;;;;;;4.03;1.55;;;23.50;91.20;;;;;;5066612;28;20241;-66
2022/07/17 12:32:59;;;;;;;4.25;1.48;;;23.70;90.80;;;;;;5066685;28;20304;-66
2022/07/17 12:35:26;;;;;;;4.53;1.58;;;23.80;91.00;;;;;;5048731;28;20663;-66
2022/07/17 12:37:53;;;;;;;3.85;1.33;;;23.80;90.10;;;;;;5066438;28;20726;-66
2022/07/17 12:40:20;;;;;;;2.50;1.55;;;23.90;89.50;;;;;;5052765;28;20215;-66
2022/07/17 12:42:46;;;;;;;2.50;1.40;;;24.00;89.30;;;;;;5046418;28;20235;-66
2022/07/17 12:45:15;;;;;;;2.65;1.17;;;23.80;89.40;;;;;;5063991;28;20219;-66
2022/07/17 12:47:41;;;;;;;4.85;1.52;;;23.90;89.20;;;;;;5066531;28;20294;-66
2022/07/17 12:50:09;;;;;;;4.50;1.40;;;24.10;89.90;;;;;;5054609;28;20212;-66
2022/07/17 12:52:36;;;;;;;1.33;1.20;;;24.30;88.40;;;;;;5062286;28;20227;-66
2022/07/17 12:55:03;;;;;;;3.92;1.42;;;24.40;87.50;;;;;;5062667;28;20211;-66
2022/07/17 12:57:30;;;;;;;5.45;2.00;;;24.50;86.30;;;;;;5066453;28;20211;-66
2022/07/17 12:59:57;;;;;;;6.03;1.65;;;24.60;87.10;;;;;;5066272;28;20215;-66
2022/07/17 13:02:25;;;;;;;3.80;1.70;;;24.40;88.50;;;;;;5066245;28;20200;-66